createdAt,value
2023-12-09T00:00:28.376Z,8.00
2023-12-09T00:02:54.917Z,7.72
2023-12-09T00:05:21.532Z,7.43
2023-12-09T00:07:48.140Z,7.38
2023-12-09T00:10:14.798Z,7.65
2023-12-09T00:12:41.307Z,7.43
2023-12-09T00:15:08.106Z,7.72
2023-12-09T00:17:35.238Z,7.72
2023-12-09T00:20:01.916Z,7.25
2023-12-09T00:22:28.746Z,7.35
2023-12-09T00:24:55.452Z,7.82
2023-12-09T00:27:22.050Z,7.47
2023-12-09T00:29:48.753Z,7.32
2023-12-09T00:32:15.413Z,7.95
2023-12-09T00:34:41.988Z,7.40
2023-12-09T00:37:09.089Z,8.30
2023-12-09T00:39:35.665Z,7.32
2023-12-09T00:42:02.259Z,7.68
2023-12-09T00:44:28.778Z,8.27
2023-12-09T00:46:55.262Z,7.78
2023-12-09T00:49:21.883Z,8.23
2023-12-09T00:51:48.560Z,7.82
2023-12-09T00:54:15.061Z,7.90
2023-12-09T00:56:41.636Z,8.02
2023-12-09T00:59:08.500Z,7.47
2023-12-09T01:01:35.497Z,7.38
2023-12-09T01:04:02.847Z,7.20
2023-12-09T01:06:30.387Z,8.70
2023-12-09T01:08:57.161Z,6.28
2023-12-09T01:11:25.207Z,7.35
2023-12-09T01:13:51.802Z,7.00
2023-12-09T01:16:18.416Z,6.97
2023-12-09T01:18:44.989Z,6.70
2023-12-09T01:21:11.637Z,7.15
2023-12-09T01:23:39.670Z,6.75
2023-12-09T01:26:08.128Z,7.38
2023-12-09T01:28:34.794Z,7.35
2023-12-09T01:31:01.272Z,7.57
2023-12-09T01:33:27.891Z,6.90
2023-12-09T01:35:54.574Z,6.68
2023-12-09T01:38:21.164Z,6.93
2023-12-09T01:40:54.804Z,6.40
2023-12-09T01:43:22.321Z,5.72
2023-12-09T01:45:52.285Z,6.82
2023-12-09T01:48:20.444Z,6.55
2023-12-09T01:50:47.586Z,6.47
2023-12-09T01:53:14.264Z,6.55
2023-12-09T01:55:42.179Z,6.25
2023-12-09T01:58:10.131Z,6.25
2023-12-09T02:00:40.054Z,5.75
2023-12-09T02:03:07.074Z,6.70
2023-12-09T02:05:33.762Z,6.38
2023-12-09T02:08:00.232Z,6.65
2023-12-09T02:10:27.680Z,5.80
2023-12-09T02:13:07.886Z,6.57
2023-12-09T02:15:42.584Z,6.65
2023-12-09T02:18:09.567Z,5.70
2023-12-09T02:20:36.160Z,6.55
2023-12-09T02:23:06.283Z,6.13
2023-12-09T02:25:33.788Z,6.18
2023-12-09T02:28:05.536Z,6.28
2023-12-09T02:31:00.477Z,5.78
2023-12-09T02:33:27.749Z,5.95
2023-12-09T02:35:56.444Z,5.97
2023-12-09T02:38:24.291Z,6.03
2023-12-09T02:40:51.891Z,6.20
2023-12-09T02:43:18.822Z,6.30
2023-12-09T02:45:49.408Z,6.30
2023-12-09T02:48:16.079Z,6.15
2023-12-09T02:50:42.707Z,6.97
2023-12-09T02:53:09.231Z,6.00
2023-12-09T02:55:35.752Z,6.47
2023-12-09T02:58:02.197Z,6.97
2023-12-09T03:00:28.906Z,6.68
2023-12-09T03:02:55.457Z,7.07
2023-12-09T03:05:22.008Z,7.35
2023-12-09T03:07:48.577Z,6.78
2023-12-09T03:10:15.145Z,6.57
2023-12-09T03:12:41.687Z,6.97
2023-12-09T03:15:09.065Z,7.40
2023-12-09T03:17:36.075Z,7.07
2023-12-09T03:20:04.200Z,7.22
2023-12-09T03:22:30.851Z,6.35
2023-12-09T03:24:57.415Z,7.47
2023-12-09T03:27:24.011Z,6.70
2023-12-09T03:29:50.559Z,6.72
2023-12-09T03:32:17.102Z,6.63
2023-12-09T03:34:46.845Z,7.60
2023-12-09T03:37:13.413Z,6.80
2023-12-09T03:39:39.919Z,7.30
2023-12-09T03:42:06.489Z,7.07
2023-12-09T03:44:33.112Z,6.53
2023-12-09T03:47:00.747Z,6.38
2023-12-09T03:49:29.602Z,6.88
2023-12-09T03:51:56.175Z,6.97
2023-12-09T03:54:22.718Z,7.43
2023-12-09T03:56:49.801Z,6.57
2023-12-09T03:59:16.353Z,6.88
2023-12-09T04:01:50.038Z,7.03
2023-12-09T04:04:17.274Z,6.80
2023-12-09T04:06:43.810Z,8.00
2023-12-09T04:09:12.971Z,7.32
2023-12-09T04:11:39.753Z,7.22
2023-12-09T04:14:06.525Z,7.05
2023-12-09T04:16:33.083Z,6.40
2023-12-09T04:18:59.801Z,6.78
2023-12-09T04:21:26.510Z,6.10
2023-12-09T04:23:53.139Z,7.50
2023-12-09T04:26:20.185Z,7.05
2023-12-09T04:28:47.762Z,6.45
2023-12-09T04:31:14.289Z,7.40
2023-12-09T04:33:41.760Z,6.88
2023-12-09T04:36:08.818Z,6.95
2023-12-09T04:38:35.318Z,7.05
2023-12-09T04:41:02.642Z,6.65
2023-12-09T04:43:29.320Z,6.65
2023-12-09T04:45:55.931Z,6.43
2023-12-09T04:48:22.686Z,7.03
2023-12-09T04:50:49.641Z,6.72
2023-12-09T04:53:16.219Z,6.35
2023-12-09T04:55:42.727Z,5.97
2023-12-09T04:58:09.217Z,6.63
2023-12-09T05:00:35.818Z,7.10
2023-12-09T05:03:02.389Z,7.22
2023-12-09T05:05:29.119Z,7.50
2023-12-09T05:07:55.655Z,6.63
2023-12-09T05:10:22.250Z,6.57
2023-12-09T05:12:49.386Z,6.53
2023-12-09T05:15:16.181Z,5.82
2023-12-09T05:17:42.901Z,6.90
2023-12-09T05:20:11.101Z,7.65
2023-12-09T05:22:38.251Z,6.57
2023-12-09T05:25:06.043Z,6.47
2023-12-09T05:27:33.102Z,7.53
2023-12-09T05:29:59.677Z,6.13
2023-12-09T05:32:26.480Z,6.85
2023-12-09T05:34:53.122Z,6.43
2023-12-09T05:37:19.862Z,6.57
2023-12-09T05:39:46.513Z,6.95
2023-12-09T05:42:13.018Z,6.18
2023-12-09T05:44:39.610Z,6.35
2023-12-09T05:47:06.233Z,5.72
2023-12-09T05:49:32.820Z,7.18
2023-12-09T05:51:59.378Z,6.18
2023-12-09T05:54:25.900Z,6.47
2023-12-09T05:56:52.393Z,6.88
2023-12-09T05:59:18.925Z,6.03
2023-12-09T06:01:45.435Z,5.88
2023-12-09T06:04:12.000Z,6.45
2023-12-09T06:06:38.573Z,6.13
2023-12-09T06:09:05.936Z,5.47
2023-12-09T06:11:32.747Z,6.55
2023-12-09T06:13:59.390Z,5.70
2023-12-09T06:16:26.002Z,6.00
2023-12-09T06:18:52.869Z,5.30
2023-12-09T06:21:23.480Z,5.18
2023-12-09T06:23:50.903Z,5.50
2023-12-09T06:26:18.093Z,6.20
2023-12-09T06:28:44.674Z,5.97
2023-12-09T06:31:14.096Z,5.75
2023-12-09T06:33:40.842Z,5.68
2023-12-09T06:36:07.862Z,5.90
2023-12-09T06:38:35.528Z,5.60
2023-12-09T06:41:02.071Z,5.30
2023-12-09T06:43:28.650Z,5.40
2023-12-09T06:45:55.180Z,4.50
2023-12-09T06:48:21.907Z,5.57
2023-12-09T06:50:48.418Z,5.70
2023-12-09T06:53:15.032Z,4.72
2023-12-09T06:55:41.982Z,4.93
2023-12-09T06:58:08.796Z,6.03
2023-12-09T07:00:35.402Z,5.38
2023-12-09T07:03:02.409Z,5.13
2023-12-09T07:05:29.557Z,5.10
2023-12-09T07:07:56.378Z,5.40
2023-12-09T07:10:22.839Z,5.45
2023-12-09T07:12:49.694Z,5.32
2023-12-09T07:15:16.835Z,5.35
2023-12-09T07:17:43.679Z,4.32
2023-12-09T07:20:11.149Z,5.05
2023-12-09T07:22:37.749Z,4.50
2023-12-09T07:25:04.451Z,5.07
2023-12-09T07:27:31.105Z,4.57
2023-12-09T07:29:57.648Z,4.80
2023-12-09T07:32:24.289Z,4.63
2023-12-09T07:34:53.731Z,4.78
2023-12-09T07:39:49.756Z,4.95
2023-12-09T07:42:16.361Z,5.30
2023-12-09T07:44:42.916Z,4.32
2023-12-09T07:47:09.373Z,4.28
2023-12-09T07:49:36.007Z,4.50
2023-12-09T07:52:02.735Z,4.28
2023-12-09T07:54:29.300Z,4.90
2023-12-09T07:56:55.798Z,4.38
2023-12-09T07:59:22.408Z,4.20
2023-12-09T08:01:48.952Z,4.50
2023-12-09T08:04:16.020Z,4.78
2023-12-09T08:06:42.603Z,4.20
2023-12-09T08:09:10.572Z,4.15
2023-12-09T08:11:37.123Z,4.22
2023-12-09T08:14:03.566Z,3.60
2023-12-09T08:16:30.071Z,3.72
2023-12-09T08:18:56.724Z,3.92
2023-12-09T08:21:25.380Z,3.88
2023-12-09T08:23:52.003Z,4.32
2023-12-09T08:26:19.325Z,3.97
2023-12-09T08:28:46.474Z,3.88
2023-12-09T08:31:13.048Z,3.85
2023-12-09T08:33:40.754Z,3.60
2023-12-09T08:36:08.175Z,3.95
2023-12-09T08:38:34.831Z,3.80
2023-12-09T08:41:01.330Z,4.03
2023-12-09T08:43:27.863Z,4.15
2023-12-09T08:45:54.435Z,4.00
2023-12-09T08:48:21.275Z,3.55
2023-12-09T08:50:47.886Z,3.22
2023-12-09T08:53:14.369Z,3.88
2023-12-09T08:55:40.831Z,3.70
2023-12-09T08:58:07.344Z,3.80
2023-12-09T09:00:33.903Z,3.75
2023-12-09T09:03:00.883Z,3.10
2023-12-09T09:05:27.394Z,3.63
2023-12-09T09:07:54.008Z,4.38
2023-12-09T09:10:20.680Z,3.30
2023-12-09T09:12:48.322Z,3.45
2023-12-09T09:15:16.751Z,3.70
2023-12-09T09:17:43.746Z,3.80
2023-12-09T09:20:11.552Z,3.33
2023-12-09T09:22:38.668Z,3.53
2023-12-09T09:25:05.695Z,3.55
2023-12-09T09:27:32.426Z,3.58
2023-12-09T09:29:59.091Z,3.33
2023-12-09T09:32:25.844Z,3.72
2023-12-09T09:34:52.828Z,3.25
2023-12-09T09:37:19.466Z,3.33
2023-12-09T09:39:46.159Z,3.35
2023-12-09T09:42:31.120Z,3.53
2023-12-09T09:45:15.842Z,3.00
2023-12-09T09:47:44.184Z,3.55
2023-12-09T09:50:11.698Z,4.32
2023-12-09T09:52:41.512Z,3.58
2023-12-09T09:55:09.146Z,4.70
2023-12-09T09:57:36.057Z,2.55
2023-12-09T10:00:03.020Z,3.60
2023-12-09T10:02:37.955Z,2.70
2023-12-09T10:05:04.695Z,3.00
2023-12-09T10:07:31.708Z,3.10
2023-12-09T10:09:59.070Z,3.78
2023-12-09T10:12:26.101Z,3.90
2023-12-09T10:14:53.399Z,3.35
2023-12-09T10:17:20.017Z,2.83
2023-12-09T10:19:46.624Z,2.63
2023-12-09T10:22:13.244Z,3.50
2023-12-09T10:24:45.914Z,3.00
2023-12-09T10:27:15.597Z,3.35
2023-12-09T10:29:44.802Z,2.58
2023-12-09T10:32:13.387Z,2.95
2023-12-09T10:34:43.759Z,3.30
2023-12-09T10:37:11.134Z,2.78
2023-12-09T10:39:37.812Z,2.95
2023-12-09T10:42:07.445Z,3.05
2023-12-09T10:44:34.805Z,3.38
2023-12-09T10:47:01.314Z,4.40
2023-12-09T10:49:28.056Z,4.78
2023-12-09T10:51:54.800Z,4.60
2023-12-09T10:54:21.462Z,5.18
2023-12-09T10:56:49.202Z,4.53
2023-12-09T10:59:18.484Z,4.38
2023-12-09T11:01:48.740Z,3.67
2023-12-09T11:04:16.277Z,2.85
2023-12-09T11:06:46.576Z,3.22
2023-12-09T11:09:15.703Z,3.03
2023-12-09T11:11:43.025Z,2.83
2023-12-09T11:14:12.871Z,2.90
2023-12-09T11:16:43.748Z,2.63
2023-12-09T11:19:18.012Z,2.57
2023-12-09T11:21:48.639Z,2.78
2023-12-09T11:24:18.236Z,2.45
2023-12-09T11:26:47.168Z,2.22
2023-12-09T11:29:16.215Z,1.83
2023-12-09T11:31:47.821Z,2.00
2023-12-09T11:34:15.844Z,2.10
2023-12-09T11:36:43.722Z,2.38
2023-12-09T11:39:21.686Z,2.60
2023-12-09T11:41:49.457Z,2.17
2023-12-09T11:44:16.297Z,1.80
2023-12-09T11:46:43.858Z,1.88
2023-12-09T11:49:10.715Z,2.00
2023-12-09T11:51:38.963Z,2.22
2023-12-09T11:54:08.773Z,2.20
2023-12-09T11:56:36.437Z,1.80
2023-12-09T11:59:03.335Z,2.00
2023-12-09T12:01:31.534Z,1.90
2023-12-09T12:03:58.336Z,1.90
2023-12-09T12:06:25.361Z,1.85
2023-12-09T12:08:53.477Z,1.80
2023-12-09T12:11:22.716Z,1.60
2023-12-09T12:13:50.058Z,1.48
2023-12-09T12:16:17.403Z,1.70
2023-12-09T12:18:45.364Z,2.25
2023-12-09T12:21:12.204Z,1.83
2023-12-09T12:23:40.454Z,2.20
2023-12-09T12:26:07.267Z,1.75
2023-12-09T12:28:33.943Z,1.80
2023-12-09T12:31:01.156Z,1.73
2023-12-09T12:33:32.365Z,2.10
2023-12-09T12:36:00.089Z,2.05
2023-12-09T12:38:27.685Z,1.80
2023-12-09T12:40:55.451Z,1.27
2023-12-09T12:43:22.721Z,2.38
2023-12-09T12:45:51.351Z,1.73
2023-12-09T12:48:18.571Z,1.52
2023-12-09T12:50:49.655Z,1.40
2023-12-09T12:53:18.885Z,1.40
2023-12-09T12:55:46.084Z,1.33
2023-12-09T12:58:13.031Z,1.73
2023-12-09T13:00:40.616Z,1.20
2023-12-09T13:03:08.428Z,1.55
2023-12-09T13:05:36.070Z,2.00
2023-12-09T13:08:02.996Z,1.48
2023-12-09T13:10:29.716Z,1.27
2023-12-09T13:12:56.368Z,1.80
2023-12-09T13:15:23.793Z,1.13
2023-12-09T13:17:50.767Z,1.27
2023-12-09T13:20:17.775Z,1.48
2023-12-09T13:22:46.844Z,1.58
2023-12-09T13:25:15.112Z,1.30
2023-12-09T13:27:43.051Z,1.23
2023-12-09T13:30:10.788Z,1.15
2023-12-09T13:32:38.586Z,1.08
2023-12-09T13:35:06.744Z,1.10
2023-12-09T13:37:34.015Z,0.90
2023-12-09T13:40:01.861Z,0.80
2023-12-09T13:42:29.451Z,1.30
2023-12-09T13:44:56.299Z,1.10
2023-12-09T13:47:23.545Z,1.27
2023-12-09T13:49:50.406Z,1.40
2023-12-09T13:52:17.661Z,1.17
2023-12-09T13:54:44.599Z,1.55
2023-12-09T13:57:11.642Z,1.10
2023-12-09T13:59:38.391Z,1.15
2023-12-09T14:02:06.745Z,0.80
2023-12-09T14:04:33.709Z,1.10
2023-12-09T14:07:00.521Z,1.00
2023-12-09T14:09:28.345Z,0.70
2023-12-09T14:11:55.141Z,0.80
2023-12-09T14:14:21.829Z,0.90
2023-12-09T14:16:48.524Z,0.68
2023-12-09T14:19:15.581Z,0.75
2023-12-09T14:21:42.370Z,1.20
2023-12-09T14:24:09.935Z,0.93
2023-12-09T14:26:37.717Z,1.00
2023-12-09T14:29:04.310Z,0.77
2023-12-09T14:31:30.958Z,1.20
2023-12-09T14:33:58.020Z,0.63
2023-12-09T14:36:25.180Z,1.00
2023-12-09T14:38:52.452Z,1.10
2023-12-09T14:41:19.410Z,1.45
2023-12-09T14:43:47.218Z,0.90
2023-12-09T14:46:15.270Z,0.98
2023-12-09T14:48:43.340Z,0.68
2023-12-09T14:51:10.283Z,1.05
2023-12-09T14:53:36.896Z,1.55
2023-12-09T14:56:03.845Z,0.98
2023-12-09T14:58:30.763Z,1.02
2023-12-09T15:00:57.529Z,1.00
2023-12-09T15:03:24.269Z,1.10
2023-12-09T15:05:51.063Z,0.88
2023-12-09T15:08:17.639Z,1.30
2023-12-09T15:10:44.276Z,2.20
2023-12-09T15:13:10.840Z,1.85
2023-12-09T15:15:37.521Z,2.17
2023-12-09T15:18:05.876Z,1.73
2023-12-09T15:20:33.404Z,1.52
2023-12-09T15:23:00.111Z,1.52
2023-12-09T15:25:26.924Z,3.55
2023-12-09T15:27:53.674Z,2.30
2023-12-09T15:30:20.620Z,4.10
2023-12-09T15:32:48.586Z,2.50
2023-12-09T15:35:15.441Z,1.40
2023-12-09T15:37:43.687Z,1.83
2023-12-09T15:40:12.204Z,0.93
2023-12-09T15:42:39.118Z,1.63
2023-12-09T15:45:06.492Z,1.88
2023-12-09T15:47:33.579Z,5.18
2023-12-09T15:50:00.464Z,1.88
2023-12-09T15:52:27.553Z,0.85
2023-12-09T15:54:54.515Z,1.27
2023-12-09T15:57:21.679Z,1.33
2023-12-09T15:59:49.250Z,1.50
2023-12-09T16:02:15.916Z,1.88
2023-12-09T16:04:42.606Z,1.20
2023-12-09T16:07:09.369Z,1.58
2023-12-09T16:09:40.955Z,1.33
2023-12-09T16:12:11.486Z,1.45
2023-12-09T16:14:38.170Z,1.85
2023-12-09T16:17:05.079Z,2.08
2023-12-09T16:19:31.823Z,1.48
2023-12-09T16:21:58.479Z,1.77
2023-12-09T16:24:28.575Z,1.50
2023-12-09T16:26:59.218Z,2.20
2023-12-09T16:29:25.788Z,1.30
2023-12-09T16:31:52.420Z,1.02
2023-12-09T16:34:19.096Z,1.58
2023-12-09T16:36:45.861Z,1.83
2023-12-09T16:39:14.091Z,3.30
2023-12-09T16:41:41.207Z,3.33
2023-12-09T16:44:10.591Z,3.00
2023-12-09T16:46:39.043Z,2.40
2023-12-09T16:49:06.038Z,2.33
2023-12-09T16:51:32.665Z,1.88
2023-12-09T16:53:59.280Z,2.38
2023-12-09T16:56:26.660Z,1.90
2023-12-09T16:58:53.471Z,2.42
2023-12-09T17:01:20.095Z,3.70
2023-12-09T17:03:47.379Z,3.08
2023-12-09T17:06:14.553Z,4.13
2023-12-09T17:08:41.398Z,2.35
2023-12-09T17:11:08.174Z,2.45
2023-12-09T17:13:34.834Z,2.08
2023-12-09T17:16:01.481Z,2.17
2023-12-09T17:18:28.324Z,2.10
2023-12-09T17:20:55.288Z,2.10
2023-12-09T17:23:21.969Z,2.72
2023-12-09T17:25:48.572Z,2.15
2023-12-09T17:28:15.139Z,3.30
2023-12-09T17:30:41.792Z,2.72
2023-12-09T17:33:09.214Z,2.70
2023-12-09T17:35:35.918Z,2.42
2023-12-09T17:38:02.596Z,3.30
2023-12-09T17:40:29.360Z,2.97
2023-12-09T17:42:56.188Z,2.72
2023-12-09T17:45:22.955Z,2.40
2023-12-09T17:47:49.712Z,2.35
2023-12-09T17:50:17.541Z,2.78
2023-12-09T17:52:44.351Z,3.90
2023-12-09T17:55:11.034Z,4.07
2023-12-09T17:57:37.838Z,4.57
2023-12-09T18:00:05.326Z,4.38
2023-12-09T18:02:34.376Z,4.25
2023-12-09T18:05:01.068Z,4.80
2023-12-09T18:07:27.811Z,5.68
2023-12-09T18:09:55.038Z,5.35
2023-12-09T18:12:21.686Z,5.10
2023-12-09T18:14:48.268Z,5.00
2023-12-09T18:17:14.875Z,5.25
2023-12-09T18:19:41.564Z,4.72
2023-12-09T18:22:08.218Z,5.18
2023-12-09T18:24:34.946Z,6.00
2023-12-09T18:27:01.725Z,4.90
2023-12-09T18:29:28.816Z,5.30
2023-12-09T18:31:55.456Z,5.03
2023-12-09T18:34:23.383Z,5.78
2023-12-09T18:36:50.594Z,5.57
2023-12-09T18:39:20.794Z,4.97
2023-12-09T18:41:47.497Z,4.28
2023-12-09T18:44:14.152Z,4.75
2023-12-09T18:46:41.059Z,4.07
2023-12-09T18:49:09.680Z,4.55
2023-12-09T18:51:36.407Z,4.85
2023-12-09T18:54:03.055Z,4.45
2023-12-09T18:56:29.678Z,4.90
2023-12-09T18:58:56.306Z,3.88
2023-12-09T19:01:23.264Z,4.57
2023-12-09T19:03:50.162Z,4.32
2023-12-09T19:06:16.910Z,3.38
2023-12-09T19:08:43.638Z,3.42
2023-12-09T19:11:10.261Z,4.05
2023-12-09T19:13:36.970Z,4.40
2023-12-09T19:16:04.084Z,3.92
2023-12-09T19:18:30.851Z,4.65
2023-12-09T19:20:57.572Z,4.10
2023-12-09T19:23:24.167Z,4.57
2023-12-09T19:25:50.896Z,3.10
2023-12-09T19:28:17.560Z,5.13
2023-12-09T19:30:44.193Z,4.88
2023-12-09T19:33:10.918Z,4.65
2023-12-09T19:35:37.580Z,3.92
2023-12-09T19:38:04.480Z,4.97
2023-12-09T19:40:33.547Z,4.10
2023-12-09T19:43:00.263Z,4.40
2023-12-09T19:45:27.097Z,4.57
2023-12-09T19:47:56.270Z,5.07
2023-12-09T19:50:24.924Z,4.05
2023-12-09T19:52:52.106Z,3.40
2023-12-09T19:55:18.740Z,3.53
2023-12-09T19:57:45.689Z,3.35
2023-12-09T20:00:15.744Z,4.10
2023-12-09T20:02:45.247Z,4.10
2023-12-09T20:05:12.280Z,4.43
2023-12-09T20:07:39.118Z,3.63
2023-12-09T20:10:06.408Z,3.97
2023-12-09T20:12:33.142Z,5.00
2023-12-09T20:14:59.822Z,4.57
2023-12-09T20:17:26.689Z,4.03
2023-12-09T20:19:53.428Z,4.13
2023-12-09T20:22:21.330Z,3.47
2023-12-09T20:24:48.132Z,3.95
2023-12-09T20:27:14.962Z,3.42
2023-12-09T20:29:41.911Z,3.42
2023-12-09T20:32:08.541Z,3.97
2023-12-09T20:34:35.238Z,2.95
2023-12-09T20:37:02.603Z,3.20
2023-12-09T20:39:29.359Z,3.30
2023-12-09T20:41:56.021Z,4.20
2023-12-09T20:44:22.670Z,4.20
2023-12-09T20:46:49.336Z,3.20
2023-12-09T20:49:18.091Z,3.10
2023-12-09T20:51:45.959Z,3.35
2023-12-09T20:54:13.107Z,3.25
2023-12-09T20:56:39.828Z,3.10
2023-12-09T20:59:09.110Z,3.13
2023-12-09T21:01:54.974Z,3.28
2023-12-09T21:04:22.872Z,3.08
2023-12-09T21:06:50.086Z,3.00
2023-12-09T21:09:16.740Z,4.15
2023-12-09T21:11:43.871Z,4.82
2023-12-09T21:14:10.448Z,3.92
2023-12-09T21:16:37.075Z,3.30
2023-12-09T21:19:03.941Z,4.47
2023-12-09T21:21:34.545Z,5.63
2023-12-09T21:24:01.363Z,4.30
2023-12-09T21:26:28.380Z,3.22
2023-12-09T21:28:55.061Z,3.38
2023-12-09T21:31:21.686Z,3.47
2023-12-09T21:33:48.456Z,3.47
2023-12-09T21:36:16.335Z,3.50
2023-12-09T21:38:43.891Z,2.67
2023-12-09T21:41:19.314Z,3.58
2023-12-09T21:43:47.254Z,3.13
2023-12-09T21:46:13.855Z,4.40
2023-12-09T21:48:40.583Z,3.00
2023-12-09T21:51:07.526Z,3.17
2023-12-09T21:53:34.054Z,3.00
2023-12-09T21:56:01.016Z,3.67
2023-12-09T21:58:27.967Z,3.10
2023-12-09T22:00:54.747Z,4.22
2023-12-09T22:03:21.537Z,4.03
2023-12-09T22:05:48.160Z,3.75
2023-12-09T22:08:14.801Z,3.50
2023-12-09T22:10:41.411Z,3.97
2023-12-09T22:13:08.534Z,3.35
2023-12-09T22:15:37.413Z,3.50
2023-12-09T22:18:04.528Z,3.35
2023-12-09T22:20:31.978Z,2.83
2023-12-09T22:22:58.805Z,3.75
2023-12-09T22:25:25.660Z,3.47
2023-12-09T22:27:52.258Z,3.38
2023-12-09T22:30:19.242Z,3.38
2023-12-09T22:32:45.884Z,3.65
2023-12-09T22:35:12.550Z,3.10
2023-12-09T22:37:40.694Z,3.42
2023-12-09T22:40:09.175Z,3.20
2023-12-09T22:42:36.934Z,2.55
2023-12-09T22:45:05.477Z,3.28
2023-12-09T22:47:33.013Z,3.20
2023-12-09T22:49:59.728Z,3.60
2023-12-09T22:52:26.492Z,3.65
2023-12-09T22:54:53.819Z,3.90
2023-12-09T22:57:20.585Z,3.13
2023-12-09T22:59:47.348Z,3.63
2023-12-09T23:02:13.948Z,3.63
2023-12-09T23:04:40.992Z,3.17
2023-12-09T23:07:07.888Z,3.13
2023-12-09T23:09:35.185Z,3.65
2023-12-09T23:12:01.986Z,3.92
2023-12-09T23:14:28.683Z,3.63
2023-12-09T23:16:56.616Z,4.05
2023-12-09T23:19:24.239Z,3.90
2023-12-09T23:21:51.059Z,4.00
2023-12-09T23:24:17.862Z,3.78
2023-12-09T23:26:44.524Z,3.67
2023-12-09T23:29:11.190Z,4.13
2023-12-09T23:31:41.713Z,3.78
2023-12-09T23:34:10.379Z,3.70
2023-12-09T23:36:37.499Z,3.40
2023-12-09T23:39:04.217Z,3.78
2023-12-09T23:41:30.837Z,3.88
2023-12-09T23:43:57.433Z,4.05
2023-12-09T23:46:24.147Z,3.95
2023-12-09T23:48:50.792Z,3.92
2023-12-09T23:51:17.493Z,3.55
2023-12-09T23:53:44.464Z,4.00
2023-12-09T23:56:11.093Z,3.78
2023-12-09T23:58:37.777Z,4.38
